Tiempo atmosférico en la estación meteorológica de Tuineje, Las Palmas (1 m.)



Fecha
DESCASC
Temp. máxima en grados centígrados (hora)
DESCASC
Temp. mínima en grados centígrados (hora)
DESCASC
Temp. media en grados centígrados
DESCASC
Racha de viento máxima en m/sg (hora)
DESCASC
Velocidad máxima media en intervalos de 10 minutos(hora)
DESCASC
Precipitaciones diarias en mm
DESCASC
Precipitaciones de 00:00 a 06:00 en mm
DESCASC
Precipitaciones de 06:00 a 12:00 en mm
DESCASC
Precipitaciones de 12:00 a 18:00 en mm
DESCASC
Precipitaciones de 18:00 a 24:00 en mm
DESCASC

Gráficas

Temp. máximas Temp. mínimas Temp. medias Precipitaciones Rachas de viento máximas Velocidades máximas media en intervalos de 10 minutos

Datos horarios

Fecha y hora oficial Temperatura (ºC) Velocidad del viento (km/h) Dirección del viento Racha (km/h) Dirección de racha Precipitación (mm) Presión (hPa) Tendencia (hPa) Humedad (%)
2019-05-25 23:00:00 19.5 19 Norte 41 Norte 0 -- -- 66
2019-05-25 22:00:00 19.8 19 Norte 36 Norte 0 -- -- 65
2019-05-25 21:00:00 20.1 16 Norte 37 Norte 0 -- -- 64
2019-05-25 20:00:00 21.3 20 Norte 35 Norte 0 -- -- 59
2019-05-25 19:00:00 23.2 18 Norte 31 Norte 0 -- -- 51
2019-05-25 18:00:00 24.9 16 Norte 28 Norte 0 -- -- 49
2019-05-25 17:00:00 25.5 19 Norte 36 Nordeste 0 -- -- 50
2019-05-25 16:00:00 22.6 18 Este 40 Este 0 -- -- 68
2019-05-25 15:00:00 22.6 18 Este 40 Este 0 -- -- 67
2019-05-25 14:00:00 21.8 23 Este 41 Este 0 -- -- 70
2019-05-25 13:00:00 24.5 10 Nordeste 30 Nordeste 0 -- -- 57
2019-05-25 12:00:00 24.6 13 Norte 37 Norte 0 -- -- 55
2019-05-25 11:00:00 22.9 10 Norte 26 Nordeste 0 -- -- 61
2019-05-25 10:00:00 20.8 18 Nordeste 28 Norte 0 -- -- 67
2019-05-25 09:00:00 20.3 17 Norte 28 Nordeste 0 -- -- 71
2019-05-25 08:00:00 19.7 10 Norte 20 Norte 0 -- -- 74
2019-05-25 07:00:00 18.8 10 Norte 21 Norte 0 -- -- 76
2019-05-25 06:00:00 18.5 12 Norte 26 Norte 0 -- -- 78
2019-05-25 05:00:00 18.4 10 Norte 25 Norte 0 -- -- 78
2019-05-25 04:00:00 18.7 15 Norte 27 Norte 0 -- -- 76
2019-05-25 03:00:00 19.2 10 Norte 23 Norte 0 -- -- 70
2019-05-25 02:00:00 19.3 11 Norte 33 Norte 0 -- -- 70
2019-05-25 01:00:00 19.6 20 Norte 32 Norte 0 -- -- 68
2019-05-25 00:00:00 19.9 18 Norte 28 Norte 0 -- -- 69
2019-05-24 23:00:00 20.2 11 Norte 29 Norte 0 -- -- 70
2019-05-24 22:00:00 20.9 13 Norte 30 Norte 0 -- -- 67
2019-05-24 21:00:00 22.3 18 Norte 33 Norte 0 -- -- 59
2019-05-24 20:00:00 23.9 19 Norte 35 Norte 0 -- -- 56
2019-05-24 19:00:00 26.4 19 Norte 35 Nordeste 0 -- -- 49
2019-05-24 18:00:00 27.3 21 Nordeste 40 Nordeste 0 -- -- 46
2019-05-24 17:00:00 27.8 27 Nordeste 52 Nordeste 0 -- -- 43
2019-05-24 16:00:00 28 32 Nordeste 51 Nordeste 0 -- -- 37
2019-05-24 15:00:00 27.3 36 Nordeste 54 Nordeste 0 -- -- 36
2019-05-24 14:00:00 26.7 31 Nordeste 51 Nordeste 0 -- -- 41
2019-05-24 13:00:00 26.1 35 Nordeste 49 Nordeste 0 -- -- 42
2019-05-24 12:00:00 25.8 27 Nordeste 50 Nordeste 0 -- -- 42
2019-05-24 11:00:00 24.8 32 Nordeste 51 Nordeste 0 -- -- 44
2019-05-24 10:00:00 23.4 28 Nordeste 45 Nordeste 0 -- -- 50
2019-05-24 09:00:00 22.1 13 Norte 32 Norte 0 -- -- 63
2019-05-24 08:00:00 20.8 13 Norte 36 Norte 0 -- -- 65
2019-05-24 07:00:00 19.7 19 Norte 38 Norte 0 -- -- 70
2019-05-24 06:00:00 20 19 Norte 40 Norte 0 -- -- 67
2019-05-24 05:00:00 19.6 21 Norte 40 Norte 0 -- -- 70
2019-05-24 04:00:00 19.7 23 Norte 38 Norte 0 -- -- 70
2019-05-24 03:00:00 19.9 12 Norte 31 Norte 0 -- -- 65
2019-05-24 02:00:00 19.7 18 Norte 33 Norte 0 -- -- 71
2019-05-24 01:00:00 19.7 18 Noroeste 33 Noroeste 0 -- -- 70
2019-05-24 00:00:00 20.3 10 Norte 24 Nordeste 0 -- -- 63
2019-05-23 23:00:00 20.3 16 Norte 33 Norte 0 -- -- 66
2019-05-23 22:00:00 20.1 19 Norte 35 Norte 0 -- -- 68
2019-05-23 21:00:00 20.7 20 Norte 38 Noroeste 0 -- -- 66
2019-05-23 20:00:00 22.1 21 Norte 40 Norte 0 -- -- 59
2019-05-23 19:00:00 23.5 19 Norte 35 Norte 0 -- -- 55
2019-05-23 18:00:00 25 18 Norte 37 Norte 0 -- -- 50
2019-05-23 17:00:00 23.7 15 Nordeste 67 Norte 0 -- -- 60
2019-05-23 16:00:00 25.9 15 Nordeste 36 Este 0 -- -- 50
2019-05-23 15:00:00 23.3 21 Este 38 Este 0 -- -- 62
2019-05-23 14:00:00 23 21 Este 37 Este 0 -- -- 61
2019-05-23 13:00:00 25.6 14 Norte 35 Norte 0 -- -- 48
2019-05-23 12:00:00 24.2 17 Norte 37 Norte 0 -- -- 51
2019-05-23 11:00:00 22.9 19 Norte 33 Norte 0 -- -- 54
2019-05-23 10:00:00 21.3 21 Norte 33 Nordeste 0 -- -- 59
2019-05-23 09:00:00 19.9 19 Nordeste 28 Nordeste 0 -- -- 64
2019-05-23 08:00:00 18.8 12 Nordeste 27 Norte 0 -- -- 67
2019-05-23 07:00:00 18.2 14 Norte 23 Norte 0 -- -- 70
2019-05-23 06:00:00 18.3 11 Norte 23 Nordeste 0 -- -- 68
2019-05-23 05:00:00 18.6 10 Norte 24 Norte 0 -- -- 67
2019-05-23 04:00:00 18.7 16 Norte 40 Norte 0 -- -- 67
2019-05-23 03:00:00 18.9 17 Norte 42 Norte 0 -- -- 68
2019-05-23 02:00:00 19.2 19 Norte 46 Norte 0 -- -- 67
2019-05-23 01:00:00 19.3 21 Norte 38 Norte 0 -- -- 67
2019-05-23 00:00:00 19.5 23 Norte 37 Norte 0 -- -- 65
2019-05-22 23:00:00 19.6 24 Norte 45 Norte 0 -- -- 66
2019-05-22 22:00:00 19.6 24 Norte 48 Norte 0 -- -- 66
2019-05-22 21:00:00 20.2 20 Norte 44 Norte 0 -- -- 65
2019-05-22 20:00:00 21.3 24 Norte 43 Norte 0 -- -- 62
2019-05-22 19:00:00 22.6 24 Norte 48 Norte 0 -- -- 56
2019-05-22 18:00:00 23.7 25 Norte 43 Norte 0 -- -- 55
2019-05-22 17:00:00 24.7 24 Norte 43 Norte 0 -- -- 52
2019-05-22 16:00:00 24.8 18 Norte 38 Nordeste 0 -- -- 54
2019-05-22 15:00:00 23.1 12 Este 33 Este 0 -- -- 63
2019-05-22 14:00:00 22.3 20 Este 34 Nordeste 0 -- -- 65
2019-05-22 13:00:00 24.5 20 Nordeste 39 Nordeste 0 -- -- 54
2019-05-22 12:00:00 23.8 19 Nordeste 33 Norte 0 -- -- 55
2019-05-22 11:00:00 22.2 19 Norte 31 Norte 0 -- -- 60
2019-05-22 10:00:00 21.1 17 Nordeste 27 Nordeste 0 -- -- 65
2019-05-22 09:00:00 20.3 16 Norte 28 Norte 0 -- -- 66
2019-05-22 08:00:00 19.9 15 Nordeste 28 Norte 0 -- -- 68
2019-05-22 07:00:00 19.2 18 Norte 37 Norte 0 -- -- 72
2019-05-22 06:00:00 19.4 18 Norte 33 Norte 0 -- -- 74
2019-05-22 05:00:00 19.2 17 Norte 35 Norte 0 -- -- 74
2019-05-22 04:00:00 19 15 Norte 31 Norte 0 -- -- 75
2019-05-22 03:00:00 19 17 Norte 35 Norte 0 -- -- 74
2019-05-22 02:00:00 19 19 Norte 35 Norte 0 -- -- 73
2019-05-22 01:00:00 19.1 17 Norte 34 Norte 0 -- -- 74
2019-05-22 00:00:00 19.1 19 Norte 38 Norte 0 -- -- 73
2019-05-21 23:00:00 19.3 15 Norte 32 Norte 0 -- -- 73
2019-05-21 22:00:00 19.8 19 Norte 36 Norte 0 -- -- 69
2019-05-21 21:00:00 20.4 20 Norte 41 Norte 0 -- -- 68
2019-05-21 20:00:00 21.3 23 Norte 44 Norte 0 -- -- 63
2019-05-21 19:00:00 22.9 17 Norte 36 Nordeste 0 -- -- 56
2019-05-21 18:00:00 24.1 19 Norte 36 Norte 0 -- -- 53
2019-05-21 17:00:00 25 18 Norte 36 Nordeste 0 -- -- 50
2019-05-21 16:00:00 25.2 15 Norte 33 Noroeste 0 -- -- 50
2019-05-21 15:00:00 24.9 11 Norte 32 Norte 0 -- -- 52
2019-05-21 14:00:00 23.9 17 Norte 30 Norte 0 -- -- 54
2019-05-21 13:00:00 23.4 12 Norte 27 Norte 0 -- -- 56
2019-05-21 12:00:00 22.6 13 Norte 28 Norte 0 -- -- 57
2019-05-21 11:00:00 21.1 14 Norte 25 Noroeste 0 -- -- 62
2019-05-21 10:00:00 20.4 15 Nordeste 29 Nordeste 0 -- -- 66
2019-05-21 09:00:00 20.2 14 Nordeste 26 Norte 0 -- -- 65
2019-05-21 08:00:00 19.7 15 Nordeste 27 Nordeste 0 -- -- 66
2019-05-21 07:00:00 19.5 16 Nordeste 24 Nordeste 0 -- -- 69
2019-05-21 06:00:00 19.6 13 Nordeste 25 Nordeste 0 -- -- 67
2019-05-21 05:00:00 19.4 12 Norte 22 Norte 0 -- -- 65
2019-05-21 04:00:00 19.4 10 Norte 26 Norte 0 -- -- 68
2019-05-21 03:00:00 19.1 18 Norte 32 Norte 0 -- -- 69
2019-05-21 02:00:00 19 16 Norte 33 Norte 0 -- -- 71
2019-05-21 01:00:00 19.1 18 Norte 36 Norte 0 -- -- 71
2019-05-21 00:00:00 19.5 19 Norte 37 Norte 0 -- -- 69
2019-05-20 23:00:00 19.7 21 Norte 38 Nordeste 0 -- -- 66
2019-05-20 22:00:00 20.4 19 Norte 38 Norte 0 -- -- 65
2019-05-20 21:00:00 20.5 21 Norte 41 Norte 0 -- -- 61
2019-05-20 20:00:00 20.9 24 Norte 41 Norte 0 -- -- 65
2019-05-20 19:00:00 21.6 21 Norte 44 Norte 0 -- -- 63
2019-05-20 18:00:00 23.3 22 Norte 41 Norte 0 -- -- 53
2019-05-20 17:00:00 24.2 23 Norte 43 Norte 0 -- -- 50
2019-05-20 16:00:00 24.9 18 Norte 42 Norte 0 -- -- 47
2019-05-20 15:00:00 24.2 22 Norte 40 Norte 0 -- -- 53
2019-05-20 14:00:00 24.2 19 Norte 39 Norte 0 -- -- 51
2019-05-20 13:00:00 23.6 21 Norte 42 Norte 0 -- -- 54
2019-05-20 12:00:00 22 23 Norte 46 Norte 0 -- -- 61
2019-05-20 11:00:00 21.6 24 Norte 42 Norte 0 -- -- 67
2019-05-20 10:00:00 21 22 Norte 42 Norte 0 -- -- 66
2019-05-20 09:00:00 20.6 17 Norte 36 Norte 0 -- -- 62
2019-05-20 08:00:00 19.7 22 Norte 42 Norte 0 -- -- 64
2019-05-20 07:00:00 19.2 14 Norte 36 Norte 0 -- -- 69
2019-05-20 06:00:00 19.1 17 Norte 33 Norte 0 -- -- 73
2019-05-20 05:00:00 19 15 Norte 36 Norte 0 -- -- 71
2019-05-20 04:00:00 19 22 Norte 42 Norte 0 -- -- 71
2019-05-20 03:00:00 18.9 22 Norte 38 Norte 0 -- -- 68
2019-05-20 02:00:00 18.9 21 Norte 36 Norte 0 -- -- 68
2019-05-20 01:00:00 19 20 Norte 38 Norte 0 -- -- 71
2019-05-20 00:00:00 19.3 19 Norte 39 Norte 0 -- -- 70
2019-05-19 23:00:00 19.6 19 Norte 34 Norte 0 -- -- 67
2019-05-19 22:00:00 19.8 17 Norte 38 Norte 0 -- -- 65
2019-05-19 21:00:00 20.6 17 Norte 44 Norte 0 -- -- 64
2019-05-19 20:00:00 21.5 26 Norte 48 Norte 0 -- -- 59
2019-05-19 19:00:00 22.7 28 Norte 49 Norte 0 -- -- 56
2019-05-19 18:00:00 23 30 Nordeste 53 Nordeste 0 -- -- 56
2019-05-19 17:00:00 23.4 28 Nordeste 44 Nordeste 0 -- -- 57
2019-05-19 16:00:00 24 25 Nordeste 44 Nordeste 0 -- -- 55
2019-05-19 15:00:00 24 30 Nordeste 56 Nordeste 0 -- -- 54
2019-05-19 14:00:00 24.4 30 Norte 61 Nordeste 0 -- -- 51
2019-05-19 13:00:00 23.7 32 Nordeste 47 Norte 0 -- -- 53
2019-05-19 12:00:00 22.3 22 Nordeste 44 Nordeste 0 -- -- 58
2019-05-19 11:00:00 21.4 24 Nordeste 36 Nordeste 0 -- -- 61
2019-05-19 10:00:00 20.8 15 Nordeste 27 Nordeste 0 -- -- 64
2019-05-19 09:00:00 19.3 13 Nordeste 19 Nordeste 0 -- -- 70
2019-05-19 08:00:00 18.9 3 Norte 11 Norte 0 -- -- 72
2019-05-19 07:00:00 18.3 6 Noroeste 18 Noroeste 0 -- -- 75
2019-05-19 06:00:00 17.8 10 Norte 22 Noroeste 0 -- -- 76
2019-05-19 05:00:00 18 10 Norte 19 Norte 0 -- -- 75
2019-05-19 04:00:00 18.2 8 Norte 20 Norte 0 -- -- 75
2019-05-19 03:00:00 18.1 11 Norte 23 Norte 0 -- -- 75
2019-05-19 02:00:00 18.4 9 Norte 19 Noroeste 0 -- -- 72
2019-05-19 01:00:00 19 9 Norte 15 Norte 0 -- -- 65
2019-05-19 00:00:00 19 8 Norte 24 Norte 0 -- -- 69
2019-05-18 23:00:00 19.1 14 Nordeste 37 Norte 0 -- -- 74
2019-05-18 22:00:00 19.4 22 Nordeste 37 Nordeste 0 -- -- 74
2019-05-18 21:00:00 19.9 27 Nordeste 49 Nordeste 0 -- -- 69
2019-05-18 20:00:00 21.2 24 Nordeste 42 Norte 0 -- -- 62
2019-05-18 19:00:00 22.3 27 Nordeste 44 Nordeste 0 -- -- 53
2019-05-18 18:00:00 22.3 27 Nordeste 40 Nordeste 0 -- -- 60
2019-05-18 17:00:00 22.7 26 Nordeste 47 Nordeste 0 -- -- 59
2019-05-18 16:00:00 22.7 23 Nordeste 40 Nordeste 0 -- -- 58
2019-05-18 15:00:00 22.6 25 Nordeste 39 Nordeste 0 -- -- 57
2019-05-18 14:00:00 21.1 17 Nordeste 46 Nordeste 0 -- -- 67
2019-05-18 13:00:00 22.1 26 Nordeste 40 Nordeste 0 -- -- 59
2019-05-18 12:00:00 21.7 26 Nordeste 40 Norte 0 -- -- 61
2019-05-18 11:00:00 21.5 26 Nordeste 39 Norte 0 -- -- 64
2019-05-18 10:00:00 20.4 26 Nordeste 36 Nordeste 0 -- -- 68
2019-05-18 09:00:00 19.8 21 Nordeste 31 Norte 0 -- -- 72
2019-05-18 08:00:00 18.8 20 Nordeste 39 Nordeste 0 -- -- 75
2019-05-18 07:00:00 18.3 19 Nordeste 35 Nordeste 0 -- -- 77
2019-05-18 06:00:00 18.4 21 Nordeste 39 Norte 0 -- -- 78
2019-05-18 05:00:00 18.5 24 Norte 37 Norte 0 -- -- 79
2019-05-18 04:00:00 18.6 19 Nordeste 35 Nordeste 0 -- -- 78
2019-05-18 03:00:00 18.8 14 Norte 33 Nordeste 0 -- -- 78
2019-05-18 02:00:00 19.1 21 Norte 36 Norte 0 -- -- 77
2019-05-18 01:00:00 19.4 17 Nordeste 27 Norte 0 -- -- 76
2019-05-18 00:00:00 19.8 18 Norte 33 Norte 0 -- -- 74
2019-05-17 23:00:00 19.9 20 Nordeste 29 Nordeste 0 -- -- 77
2019-05-17 22:00:00 20.7 11 Norte 27 Nordeste 0 -- -- 71
2019-05-17 21:00:00 21.3 19 Nordeste 30 Nordeste 0 -- -- 70
2019-05-17 20:00:00 22.4 21 Nordeste 31 Nordeste 0 -- -- 65
2019-05-17 19:00:00 22.9 22 Norte 40 Nordeste 0 -- -- 60
2019-05-17 18:00:00 23.4 20 Nordeste 35 Norte 0 -- -- 58
2019-05-17 17:00:00 24.4 25 Norte 39 Norte 0 -- -- 57
2019-05-17 16:00:00 25.2 18 Norte 31 Nordeste 0 -- -- 55
2019-05-17 15:00:00 25.8 18 Nordeste 30 Nordeste 0 -- -- 52
2019-05-17 14:00:00 23.3 16 Este 28 Este 0 -- -- 66
2019-05-17 13:00:00 25.8 19 Nordeste 34 Nordeste 0 -- -- 50
2019-05-17 12:00:00 25.8 19 Nordeste 32 Norte 0 -- -- 51
2019-05-17 11:00:00 24.4 15 Nordeste 31 Este 0 -- -- 56
2019-05-17 10:00:00 22.6 14 Norte 28 Norte 0 -- -- 67
2019-05-17 09:00:00 20.9 16 Norte 24 Norte 0 -- -- 75
2019-05-17 08:00:00 19.7 8 Norte 21 Norte 0 -- -- 81
2019-05-17 07:00:00 19.1 12 Nordeste 22 Nordeste 0 -- -- 83
2019-05-17 06:00:00 19.5 10 Norte 27 Norte 0 -- -- 81
2019-05-17 05:00:00 19.6 13 Norte 25 Norte 0 -- -- 81
2019-05-17 04:00:00 19.7 12 Norte 25 Norte 0 -- -- 81
2019-05-17 03:00:00 20.1 15 Norte 30 Norte 0 -- -- 80
2019-05-17 02:00:00 20.7 15 Norte 31 Norte 0 -- -- 78
2019-05-17 01:00:00 20.8 17 Norte 33 Norte 0 -- -- 78
2019-05-17 00:00:00 21.4 15 Norte 27 Norte 0 -- -- 74
2019-05-16 23:00:00 22.2 13 Norte 23 Norte 0 -- -- 67
2019-05-16 22:00:00 22.6 13 Nordeste 19 Norte 0 -- -- 64
2019-05-16 21:00:00 21.8 3 Sudoeste 25 Este 0 -- -- 79
2019-05-16 20:00:00 20.5 10 Este 29 Nordeste 0 -- -- 84
2019-05-16 19:00:00 20.9 17 Este 30 Este 0 -- -- 83
2019-05-16 18:00:00 22.1 13 Este 23 Este 0 -- -- 78
2019-05-16 17:00:00 23.1 6 Sudeste 17 Sur 0 -- -- 78
2019-05-16 16:00:00 22.8 12 Sur 17 Sudoeste 0 -- -- 74
2019-05-16 15:00:00 22.4 13 Sur 20 Sur 0 -- -- 75
2019-05-16 14:00:00 22.8 15 Sur 18 Sur 0 -- -- 74
2019-05-16 13:00:00 22 10 Sur 15 Sur 0 -- -- 75
2019-05-16 12:00:00 21.8 9 Sur 12 Sur 0 -- -- 76
2019-05-16 11:00:00 21.3 7 Sudeste 10 Sudeste 0 -- -- 77
2019-05-16 10:00:00 21.3 5 Sudeste 11 Sudeste 0 -- -- 76
2019-05-16 09:00:00 20.5 4 Nordeste 14 Norte 0 -- -- 73
2019-05-16 08:00:00 17.7 7 Norte 12 Nordeste 0 -- -- 83
2019-05-16 07:00:00 17.8 7 Nordeste 12 Norte 0 -- -- 81
2019-05-16 06:00:00 18.4 5 Norte 10 Nordeste 0 -- -- 81
2019-05-16 05:00:00 18.4 6 Nordeste 12 Nordeste 0 -- -- 82
2019-05-16 04:00:00 19 5 Norte 15 Norte 0 -- -- 81
2019-05-16 03:00:00 19 10 Norte 14 Noroeste 0 -- -- 79
2019-05-16 02:00:00 19.7 4 Oeste 8 Oeste 0 -- -- 81
2019-05-16 01:00:00 19.7 7 Sudoeste 15 Sudoeste 0 -- -- 86
2019-05-16 00:00:00 19.9 12 Sudoeste 18 Oeste 0 -- -- 85
2019-05-15 23:00:00 20.2 12 Oeste 17 Sudoeste 0 -- -- 83
2019-05-15 22:00:00 20.5 12 Sudoeste 18 Oeste 0 -- -- 82
2019-05-15 21:00:00 20.8 12 Sudoeste 14 Sudoeste 0 -- -- 82
2019-05-15 20:00:00 21.6 8 Sudoeste 18 Sur 0 -- -- 81
2019-05-15 19:00:00 21.3 11 Sudeste 21 Sudeste 0 -- -- 80
2019-05-15 18:00:00 21.9 8 Sudeste 24 Sudeste 0 -- -- 77
2019-05-15 17:00:00 22.3 10 Sudeste 25 Sudeste 0 -- -- 75
2019-05-15 16:00:00 22.3 10 Sudeste 20 Este 0 -- -- 74
2019-05-15 15:00:00 22.6 10 Sudeste 21 Sudeste 0 -- -- 73
2019-05-15 14:00:00 22.1 11 Sudeste 21 Sudeste 0 -- -- 73
2019-05-15 13:00:00 21.7 11 Sudeste 24 Sudeste 0 -- -- 73
2019-05-15 12:00:00 21.7 12 Este 22 Sudeste 0 -- -- 73
2019-05-15 11:00:00 21 8 Sudeste 11 Sudeste 0 -- -- 72
2019-05-15 10:00:00 21.6 5 Sudeste 15 Nordeste 0 -- -- 69
2019-05-15 09:00:00 20.1 9 Norte 15 Norte 0 -- -- 72
2019-05-15 08:00:00 19.2 2 Noroeste 14 Nordeste 0 -- -- 76
2019-05-15 07:00:00 17.9 3 Nordeste 14 Nordeste 0 -- -- 80
2019-05-15 06:00:00 17.9 0 Calma 12 Nordeste 0 -- -- 80
2019-05-15 05:00:00 18.2 0 Calma 14 Nordeste 0 -- -- 79
2019-05-15 04:00:00 18.5 6 Norte 19 Norte 0 -- -- 77
2019-05-15 03:00:00 18.7 6 Norte 13 Norte 0 -- -- 76
2019-05-15 02:00:00 19.1 7 Noroeste 18 Norte 0 -- -- 76
2019-05-15 01:00:00 19.7 9 Norte 18 Norte 0 -- -- 73
2019-05-15 00:00:00 20.1 6 Norte 17 Norte 0 -- -- 72
2019-05-14 23:00:00 20.5 11 Norte 19 Norte 0 -- -- 72
2019-05-14 22:00:00 20.7 6 Oeste 12 Sudoeste 0 -- -- 81
2019-05-14 21:00:00 20.5 10 Sur 22 Sudoeste 0 -- -- 83
2019-05-14 20:00:00 21.6 15 Sudoeste 22 Sudoeste 0 -- -- 79
2019-05-14 19:00:00 23.4 13 Sudoeste 20 Sudoeste 0 -- -- 72
2019-05-14 18:00:00 24.4 7 Sudoeste 15 Sudoeste 0 -- -- 69
2019-05-14 17:00:00 24.4 12 Sudoeste 19 Sur 0 -- -- 68
2019-05-14 16:00:00 24.8 12 Sur 14 Sur 0 -- -- 64
2019-05-14 15:00:00 24.7 8 Sur 12 Sur 0 -- -- 62
2019-05-14 14:00:00 24.3 10 Sur 12 Sur 0 -- -- 67
2019-05-14 13:00:00 23.1 9 Sur 15 Sur 0 -- -- 71
2019-05-14 12:00:00 21 10 Sudeste 15 Sudeste 0 -- -- 74
2019-05-14 11:00:00 20.8 11 Sudeste 18 Sudeste 0 -- -- 73
2019-05-14 10:00:00 21.9 6 Sur 13 Nordeste 0 -- -- 67
2019-05-14 09:00:00 20.3 9 Nordeste 24 Noroeste 0 -- -- 70
2019-05-14 08:00:00 17.9 7 Nordeste 17 Noroeste 0 -- -- 77
2019-05-14 07:00:00 18.3 11 Noroeste 26 Norte 0 -- -- 78
2019-05-14 06:00:00 18.5 11 Norte 18 Norte 0 -- -- 78
2019-05-14 05:00:00 18.4 6 Nordeste 22 Norte 0 -- -- 80
2019-05-14 04:00:00 18.8 9 Noroeste 22 Noroeste 0 -- -- 78
2019-05-14 03:00:00 19 5 Noroeste 19 Norte 0 -- -- 77
2019-05-14 02:00:00 19.7 11 Norte 18 Noroeste 0 -- -- 73
2019-05-14 01:00:00 20.2 6 Nordeste 13 Norte 0 -- -- 69
2019-05-14 00:00:00 20.9 8 Norte 12 Norte 0 -- -- 66
2019-05-13 23:00:00 21.2 8 Norte 18 Noroeste 0 -- -- 67
2019-05-13 22:00:00 21.7 8 Noroeste 18 Norte 0 -- -- 66
2019-05-13 21:00:00 22.5 12 Norte 34 Norte 0 -- -- 65
2019-05-13 20:00:00 23.3 16 Noroeste 42 Norte 0 -- -- 64
2019-05-13 19:00:00 23.9 27 Norte 43 Norte 0 -- -- 61
2019-05-13 18:00:00 26.4 22 Norte 37 Norte 0 -- -- 52
2019-05-13 17:00:00 25.2 9 Sudeste 16 Sur 0 -- -- 68
2019-05-13 16:00:00 27 12 Sudoeste 15 Sudoeste 0 -- -- 62
2019-05-13 15:00:00 24.2 6 Sudeste 9 Sudeste 0 -- -- 71
2019-05-13 14:00:00 24.1 5 Sudeste 9 Este 0 -- -- 72
2019-05-13 13:00:00 24.2 4 Sudeste 9 Sudeste 0 -- -- 70
2019-05-13 12:00:00 23.1 5 Sudeste 10 Sudeste 0 -- -- 74
2019-05-13 11:00:00 22.9 5 Sudeste 22 Este 0 -- -- 75
2019-05-13 10:00:00 22.4 11 Sudeste 23 Este 0 -- -- 67
2019-05-13 09:00:00 21.8 10 Nordeste 16 Nordeste 0 -- -- 64
2019-05-13 08:00:00 19.5 7 Nordeste 20 Noroeste 0 -- -- 71
2019-05-13 07:00:00 19.1 9 Norte 17 Noroeste 0 -- -- 76
2019-05-13 06:00:00 19.1 8 Noroeste 18 Noroeste 0 -- -- 76
2019-05-13 05:00:00 18.3 3 Nordeste 5 Nordeste 0 -- -- 83
2019-05-13 04:00:00 18.6 4 Nordeste 12 Noroeste 0 -- -- 83
2019-05-13 03:00:00 19.3 4 Noroeste 10 Noroeste 0 -- -- 80
2019-05-13 02:00:00 19.7 5 Sudoeste 9 Sudoeste 0 -- -- 87
2019-05-13 01:00:00 19.7 0 Calma 5 Sur 0 -- -- 88
2019-05-13 00:00:00 19.8 4 Sudoeste 7 Sudoeste 0 -- -- 88
2019-05-12 23:00:00 20 5 Sudoeste 9 Sudoeste 0 -- -- 88
2019-05-12 22:00:00 20 6 Sur 13 Sur 0 -- -- 88
2019-05-12 21:00:00 20.3 10 Sur 23 Sudoeste 0 -- -- 87
2019-05-12 20:00:00 21.1 16 Sudoeste 29 Sudoeste 0 -- -- 82
2019-05-12 19:00:00 22.3 22 Sudoeste 32 Sudoeste 0 -- -- 78
2019-05-12 18:00:00 23.8 23 Sudoeste 32 Sudoeste 0 -- -- 73
2019-05-12 17:00:00 24.5 11 Sudoeste 20 Sudoeste 0 -- -- 70
2019-05-12 16:00:00 23.3 16 Sudoeste 20 Sudoeste 0 -- -- 74
2019-05-12 15:00:00 21.9 10 Sur 22 Este 0 -- -- 80
2019-05-12 14:00:00 21.7 10 Sudeste 24 Este 0 -- -- 77
2019-05-12 13:00:00 21.7 8 Sudeste 15 Sudeste 0 -- -- 75
2019-05-12 12:00:00 22.5 9 Sur 12 Sur 0 -- -- 73
2019-05-12 11:00:00 21.8 5 Sur 11 Sudeste 0 -- -- 73
2019-05-12 10:00:00 19.8 8 Sudeste 15 Sudeste 0 -- -- 81
2019-05-12 09:00:00 19.4 6 Nordeste 17 Noroeste 0 -- -- 80
2019-05-12 08:00:00 17.8 6 Noroeste 12 Noroeste 0 -- -- 85
2019-05-12 07:00:00 16.4 7 Norte 19 Noroeste 0 -- -- 86
2019-05-12 06:00:00 17.2 3 Nordeste 8 Nordeste 0 -- -- 86
2019-05-12 05:00:00 17.6 3 Este 12 Nordeste 0 -- -- 84
2019-05-12 04:00:00 18.1 7 Norte 18 Noroeste 0 -- -- 82
2019-05-12 03:00:00 18.6 8 Noroeste 17 Noroeste 0 -- -- 83
2019-05-12 02:00:00 19 10 Norte 15 Norte 0 -- -- 81
2019-05-12 01:00:00 19.4 10 Norte 19 Norte 0 -- -- 81
2019-05-12 00:00:00 19.9 8 Norte 14 Norte 0 -- -- 78
2019-05-11 23:00:00 20.6 9 Norte 14 Norte 0 -- -- 75
2019-05-11 22:00:00 20.4 3 Este 8 Este 0 -- -- 80
2019-05-11 21:00:00 20.8 7 Sur 14 Sur 0 -- -- 79
2019-05-11 20:00:00 23.5 6 Nordeste 21 Nordeste 0 -- -- 66
2019-05-11 19:00:00 25.3 11 Norte 29 Sudeste 0 -- -- 58
2019-05-11 18:00:00 22.2 17 Este 40 Este 0 -- -- 74
2019-05-11 17:00:00 21.7 23 Este 41 Este 0 -- -- 76
2019-05-11 16:00:00 22.3 19 Este 39 Este 0 -- -- 72
2019-05-11 15:00:00 22.5 17 Este 35 Este 0 -- -- 71
2019-05-11 14:00:00 21.9 19 Este 40 Este 0 -- -- 72
2019-05-11 13:00:00 21.9 17 Este 35 Este 0 -- -- 71
2019-05-11 12:00:00 23.1 17 Norte 37 Nordeste 0 -- -- 63
2019-05-11 11:00:00 21.8 19 Norte 32 Nordeste 0 -- -- 68
2019-05-11 10:00:00 20.6 20 Nordeste 32 Nordeste 0 -- -- 71
2019-05-11 09:00:00 19.6 17 Nordeste 28 Nordeste 0 -- -- 75
2019-05-11 08:00:00 19.1 15 Nordeste 30 Nordeste 0 -- -- 76
2019-05-11 07:00:00 18.9 19 Nordeste 32 Nordeste 0 -- -- 77
2019-05-11 06:00:00 18.9 15 Nordeste 26 Nordeste 0 -- -- 75
2019-05-11 05:00:00 18.7 15 Norte 28 Nordeste 0 -- -- 74
2019-05-11 04:00:00 18.9 11 Norte 28 Nordeste 0 -- -- 75
2019-05-11 03:00:00 18.9 13 Nordeste 32 Nordeste 0 -- -- 74
2019-05-11 02:00:00 19.2 19 Nordeste 30 Norte 0 -- -- 74
2019-05-11 01:00:00 19.4 21 Nordeste 33 Nordeste 0 -- -- 74
2019-05-11 00:00:00 19.4 21 Nordeste 35 Norte 0 -- -- 73
2019-05-10 23:00:00 19.6 23 Nordeste 38 Nordeste 0 -- -- 72
2019-05-10 22:00:00 20 21 Nordeste 33 Nordeste 0 -- -- 72
2019-05-10 21:00:00 20 19 Nordeste 33 Nordeste 0 -- -- 72
2019-05-10 20:00:00 20.9 21 Nordeste 32 Nordeste 0 -- -- 69
2019-05-10 19:00:00 22.1 19 Nordeste 33 Nordeste 0 -- -- 66
2019-05-10 18:00:00 21.5 23 Este 35 Este 0 -- -- 68
2019-05-10 17:00:00 22.1 22 Este 42 Este 0 -- -- 66
2019-05-10 16:00:00 21.8 23 Este 43 Sudeste 0 -- -- 67
2019-05-10 15:00:00 23.4 16 Nordeste 34 Nordeste 0 -- -- 57
2019-05-10 14:00:00 24 23 Nordeste 35 Nordeste 0 -- -- 52
2019-05-10 13:00:00 23 21 Nordeste 36 Nordeste 0 -- -- 59
2019-05-10 12:00:00 22.6 18 Nordeste 35 Nordeste 0 -- -- 54
2019-05-10 11:00:00 21.3 19 Nordeste 31 Este 0 -- -- 59
2019-05-10 10:00:00 20.3 20 Nordeste 33 Nordeste 0 -- -- 63
2019-05-10 09:00:00 19.2 19 Nordeste 31 Norte 0 -- -- 65
2019-05-10 08:00:00 18.5 8 Norte 18 Norte 0 -- -- 69
2019-05-10 07:00:00 18.1 9 Norte 23 Norte 0 -- -- 70
2019-05-10 06:00:00 18.4 14 Norte 25 Nordeste 0 -- -- 69
2019-05-10 05:00:00 18.9 9 Norte 22 Nordeste 0 -- -- 69
2019-05-10 04:00:00 18.9 9 Norte 21 Nordeste 0 -- -- 69
2019-05-10 03:00:00 19.1 17 Nordeste 25 Nordeste 0 -- -- 70
2019-05-10 02:00:00 19.5 9 Norte 28 Nordeste 0 -- -- 69
2019-05-10 01:00:00 19.6 14 Nordeste 26 Nordeste 0 -- -- 71
2019-05-10 00:00:00 19.9 17 Nordeste 25 Nordeste 0 -- -- 70
2019-05-09 23:00:00 20.2 10 Nordeste 22 Norte 0 -- -- 69
2019-05-09 22:00:00 20.3 14 Norte 26 Norte 0 -- -- 70
2019-05-09 21:00:00 20.9 13 Nordeste 26 Norte 0 -- -- 71
2019-05-09 20:00:00 22 16 Nordeste 26 Nordeste 0 -- -- 66
2019-05-09 19:00:00 23.4 14 Nordeste 33 Este 0 -- -- 62
2019-05-09 18:00:00 21.6 22 Este 37 Este 0 -- -- 73
2019-05-09 17:00:00 22.4 21 Este 46 Este 0 -- -- 68
2019-05-09 16:00:00 22 22 Este 42 Este 0 -- -- 70
2019-05-09 15:00:00 22.9 21 Este 39 Este 0 -- -- 66
2019-05-09 14:00:00 21.8 23 Este 42 Este 0 -- -- 70
2019-05-09 13:00:00 22.1 21 Este 37 Este 0 -- -- 68
2019-05-09 12:00:00 23.1 20 Nordeste 34 Nordeste 0 -- -- 54
2019-05-09 11:00:00 22.1 22 Nordeste 32 Nordeste 0 -- -- 57
2019-05-09 10:00:00 21.2 17 Nordeste 28 Norte 0 -- -- 61
2019-05-09 09:00:00 20.2 8 Norte 18 Norte 0 -- -- 68
2019-05-09 08:00:00 18.3 9 Norte 18 Norte 0 -- -- 75
2019-05-09 07:00:00 17.1 6 Norte 13 Norte 0 -- -- 80
2019-05-09 06:00:00 16.6 5 Nordeste 12 Norte 0 -- -- 81
2019-05-09 05:00:00 17.4 5 Norte 13 Nordeste 0 -- -- 79
2019-05-09 04:00:00 17.8 9 Norte 18 Norte 0 -- -- 78
2019-05-09 03:00:00 17.9 6 Norte 20 Norte 0 -- -- 78
2019-05-09 02:00:00 18.4 16 Nordeste 28 Norte 0 -- -- 77
2019-05-09 01:00:00 18.7 17 Nordeste 35 Nordeste 0 -- -- 77
2019-05-09 00:00:00 19.1 18 Nordeste 30 Nordeste 0 -- -- 77
2019-05-08 23:00:00 19.4 17 Nordeste 27 Nordeste 0 -- -- 76
2019-05-08 22:00:00 19.8 16 Nordeste 27 Nordeste 0 -- -- 75
2019-05-08 21:00:00 20.7 13 Nordeste 31 Nordeste 0 -- -- 72
2019-05-08 20:00:00 21.4 12 Nordeste 35 Este 0 -- -- 71
2019-05-08 19:00:00 20.7 24 Este 42 Este 0 -- -- 75
2019-05-08 18:00:00 21 24 Este 41 Nordeste 0 -- -- 74
2019-05-08 17:00:00 21.2 25 Este 50 Este 0 -- -- 74
2019-05-08 16:00:00 21 26 Este 42 Este 0 -- -- 73
2019-05-08 15:00:00 21.4 24 Este 42 Este 0 -- -- 71
2019-05-08 14:00:00 21.6 19 Este 39 Este 0 -- -- 69
2019-05-08 13:00:00 21.7 19 Este 37 Este 0 -- -- 69
2019-05-08 12:00:00 22.1 21 Nordeste 37 Nordeste 0 -- -- 62
2019-05-08 11:00:00 21.3 23 Nordeste 32 Nordeste 0 -- -- 64
2019-05-08 10:00:00 20.9 13 Nordeste 31 Norte 0 -- -- 65
2019-05-08 09:00:00 19.1 18 Norte 26 Nordeste 0 -- -- 72
2019-05-08 08:00:00 17.7 9 Norte 17 Norte 0 -- -- 75
2019-05-08 07:00:00 16.3 6 Norte 18 Norte 0 -- -- 77
2019-05-08 06:00:00 16.8 10 Norte 18 Norte 0 -- -- 74
2019-05-08 05:00:00 17 8 Nordeste 16 Nordeste 0 -- -- 75
2019-05-08 04:00:00 17.4 8 Norte 17 Norte 0 -- -- 75
2019-05-08 03:00:00 17.9 11 Nordeste 21 Nordeste 0 -- -- 75
2019-05-08 02:00:00 18.4 14 Nordeste 26 Nordeste 0 -- -- 74
2019-05-08 01:00:00 18.9 14 Nordeste 22 Nordeste 0 -- -- 75
2019-05-08 00:00:00 19 13 Nordeste 22 Nordeste 0 -- -- 76
2019-05-07 23:00:00 19.1 13 Nordeste 23 Nordeste 0 -- -- 75
2019-05-07 22:00:00 19.4 15 Nordeste 24 Nordeste 0 -- -- 75
2019-05-07 21:00:00 20 13 Nordeste 26 Nordeste 0 -- -- 73
2019-05-07 20:00:00 21.7 14 Nordeste 23 Nordeste 0 -- -- 65
2019-05-07 19:00:00 22.9 6 Sudoeste 24 Sudeste 0 -- -- 65
2019-05-07 18:00:00 21.3 11 Sudeste 27 Sudeste 0 -- -- 72
2019-05-07 17:00:00 21 16 Este 33 Este 0 -- -- 72
2019-05-07 16:00:00 20.8 19 Este 38 Este 0 -- -- 72
2019-05-07 15:00:00 21.3 20 Este 47 Este 0 -- -- 68
2019-05-07 14:00:00 21.2 23 Este 46 Este 0 -- -- 68
2019-05-07 13:00:00 21.5 21 Este 38 Este 0 -- -- 65
2019-05-07 12:00:00 22.6 14 Nordeste 29 Nordeste 0 -- -- 60
2019-05-07 11:00:00 21.6 13 Nordeste 27 Norte 0 -- -- 59
2019-05-07 10:00:00 20.6 12 Nordeste 24 Norte 0 -- -- 62
2019-05-07 09:00:00 19.4 15 Nordeste 24 Nordeste 0 -- -- 66
2019-05-07 08:00:00 18.5 14 Nordeste 24 Norte 0 -- -- 68
2019-05-07 07:00:00 18.1 10 Norte 24 Nordeste 0 -- -- 68
2019-05-07 06:00:00 18.3 13 Nordeste 24 Nordeste 0 -- -- 69
2019-05-07 05:00:00 18.8 9 Nordeste 28 Nordeste 0 -- -- 68
2019-05-07 04:00:00 18.7 20 Nordeste 28 Nordeste 0 -- -- 69
2019-05-07 03:00:00 19 15 Nordeste 25 Nordeste 0 -- -- 69
2019-05-07 02:00:00 19.1 16 Nordeste 24 Nordeste 0 -- -- 70
2019-05-07 01:00:00 19.3 15 Nordeste 25 Nordeste 0 -- -- 70
2019-05-07 00:00:00 19.5 15 Nordeste 24 Nordeste 0 -- -- 69
2019-05-06 23:00:00 19.4 13 Norte 28 Norte 0 -- -- 67
2019-05-06 22:00:00 19.5 14 Nordeste 23 Nordeste 0 -- -- 73
2019-05-06 21:00:00 19.9 14 Nordeste 25 Nordeste 0 -- -- 72
2019-05-06 20:00:00 20.9 13 Nordeste 27 Este 0 -- -- 65
2019-05-06 19:00:00 22.4 13 Nordeste 28 Sudeste 0 -- -- 62
2019-05-06 18:00:00 21.4 15 Este 42 Este 0 -- -- 68
2019-05-06 17:00:00 22 18 Este 39 Este 0 -- -- 65
2019-05-06 16:00:00 21.1 22 Este 49 Nordeste 0 -- -- 66
2019-05-06 15:00:00 20.8 22 Este 41 Este 0 -- -- 64
2019-05-06 14:00:00 21 23 Este 37 Nordeste 0 -- -- 62
2019-05-06 13:00:00 22.5 9 Nordeste 37 Nordeste 0 -- -- 52
2019-05-06 12:00:00 20.5 18 Nordeste 28 Nordeste 0 -- -- 60
2019-05-06 11:00:00 20.1 18 Nordeste 30 Nordeste 0 -- -- 59
2019-05-06 10:00:00 19.8 17 Nordeste 30 Nordeste 0 -- -- 61
2019-05-06 09:00:00 19.1 18 Nordeste 27 Nordeste 0 -- -- 66
2019-05-06 08:00:00 18.9 11 Nordeste 22 Norte 0 -- -- 70
2019-05-06 07:00:00 18.9 12 Norte 23 Norte 0 -- -- 64
2019-05-06 06:00:00 18.7 11 Nordeste 21 Nordeste 0 -- -- 65
2019-05-06 05:00:00 18.6 14 Nordeste 26 Norte 0 -- -- 64
2019-05-06 04:00:00 18.6 11 Nordeste 18 Norte 0 -- -- 64
2019-05-06 03:00:00 18.5 11 Nordeste 22 Norte 0 -- -- 63
2019-05-06 02:00:00 18.8 9 Nordeste 19 Nordeste 0 -- -- 63
2019-05-06 01:00:00 18.8 11 Norte 18 Norte 0 -- -- 61
2019-05-06 00:00:00 18.2 10 Norte 24 Norte 0 -- -- 65
2019-05-05 23:00:00 18.6 12 Norte 28 Norte 0 -- -- 63
2019-05-05 22:00:00 19.1 17 Norte 28 Norte 0 -- -- 63
2019-05-05 21:00:00 19.7 17 Norte 30 Norte 0 -- -- 63
2019-05-05 20:00:00 20.4 17 Norte 29 Norte 0 -- -- 61
2019-05-05 19:00:00 21.7 16 Norte 31 Noroeste 0 -- -- 54
2019-05-05 18:00:00 21.2 13 Este 28 Este 0 -- -- 66
2019-05-05 17:00:00 21.3 11 Sudeste 24 Este 0 -- -- 65
2019-05-05 16:00:00 20.6 14 Sur 31 Este 0 -- -- 66
2019-05-05 15:00:00 20.4 18 Este 39 Este 0 -- -- 68
2019-05-05 14:00:00 20.5 23 Este 45 Este 0 -- -- 61
2019-05-05 13:00:00 19.8 20 Este 47 Este 0 -- -- 64
2019-05-05 12:00:00 21.4 13 Este 29 Nordeste 0 -- -- 54
2019-05-05 11:00:00 20.4 14 Nordeste 28 Nordeste 0 -- -- 56
2019-05-05 10:00:00 19.3 15 Nordeste 27 Norte 0 -- -- 57
2019-05-05 09:00:00 18.7 9 Norte 21 Norte 0 -- -- 57
2019-05-05 08:00:00 18 15 Nordeste 22 Nordeste 0 -- -- 58
2019-05-05 07:00:00 18.1 5 Norte 18 Norte 0 -- -- 60
2019-05-05 06:00:00 18 9 Norte 20 Nordeste 0 -- -- 58
2019-05-05 05:00:00 18 4 Norte 9 Norte 0 -- -- 59
2019-05-05 04:00:00 17.2 5 Nordeste 9 Nordeste 0 -- -- 63
2019-05-05 03:00:00 16.6 7 Nordeste 12 Norte 0 -- -- 65
2019-05-05 02:00:00 17.5 9 Norte 22 Norte 0 -- -- 61
2019-05-05 01:00:00 17.8 11 Norte 24 Norte 0 -- -- 59
2019-05-05 00:00:00 18 11 Norte 25 Norte 0 -- -- 59
2019-05-04 23:00:00 18.3 14 Norte 24 Norte 0 -- -- 58
2019-05-04 22:00:00 18.6 14 Norte 30 Noroeste 0 -- -- 58
2019-05-04 21:00:00 19.1 18 Norte 30 Norte 0 -- -- 54
2019-05-04 20:00:00 20.5 10 Nordeste 22 Oeste 0 -- -- 50
2019-05-04 19:00:00 21.9 13 Norte 36 Oeste 0 -- -- 46
2019-05-04 18:00:00 23.7 11 Noroeste 29 Oeste 0 -- -- 41
2019-05-04 17:00:00 24.2 6 Sur 40 Este 0 -- -- 40
2019-05-04 16:00:00 24.2 6 Sudeste 27 Norte 0 -- -- 45
2019-05-04 15:00:00 23.8 15 Norte 28 Norte 0 -- -- 42
2019-05-04 14:00:00 21 16 Sudeste 30 Este 0 -- -- 57
2019-05-04 13:00:00 22 12 Norte 28 Norte 0 -- -- 45
2019-05-04 12:00:00 20.3 14 Norte 32 Norte 0 -- -- 51
2019-05-04 11:00:00 19.7 15 Norte 27 Norte 0 -- -- 55
2019-05-04 10:00:00 18.8 15 Norte 26 Norte 0 -- -- 55
2019-05-04 09:00:00 18.6 9 Norte 22 Norte 0 -- -- 55
2019-05-04 08:00:00 18.3 11 Norte 22 Norte 0 -- -- 58
2019-05-04 07:00:00 18.2 9 Norte 24 Norte 0 -- -- 58
2019-05-04 06:00:00 18.3 11 Norte 23 Norte 0 -- -- 59
2019-05-04 05:00:00 18.2 12 Norte 22 Norte 0 -- -- 57
2019-05-04 04:00:00 18.4 10 Norte 26 Norte 0 -- -- 56
2019-05-04 03:00:00 18.4 12 Norte 24 Norte 0 -- -- 57
2019-05-04 02:00:00 18.3 11 Norte 26 Norte 0 -- -- 58
2019-05-04 01:00:00 18.2 12 Norte 26 Norte 0 -- -- 58
2019-05-04 00:00:00 18.4 16 Norte 25 Norte 0 -- -- 56
2019-05-03 23:00:00 18.7 8 Norte 26 Norte 0 -- -- 57
2019-05-03 22:00:00 18.9 14 Norte 28 Norte 0 -- -- 55
2019-05-03 21:00:00 19.3 13 Norte 30 Nordeste 0 -- -- 57
2019-05-03 20:00:00 19.6 18 Norte 32 Norte 0 -- -- 57
2019-05-03 19:00:00 20.8 18 Norte 37 Norte 0 -- -- 49
2019-05-03 18:00:00 21.5 18 Norte 42 Norte 0 -- -- 48
2019-05-03 17:00:00 23.3 14 Noroeste 33 Noroeste 0 -- -- 44
2019-05-03 16:00:00 22.1 6 Sur 13 Sur 0 -- -- 58
2019-05-03 15:00:00 21.1 7 Sudeste 15 Sur 0 -- -- 63
2019-05-03 14:00:00 21.4 9 Sudeste 22 Norte 0 -- -- 63
2019-05-03 13:00:00 23.3 17 Noroeste 36 Oeste 0 -- -- 42
2019-05-03 12:00:00 22.2 11 Norte 24 Norte 0 -- -- 46
2019-05-03 11:00:00 20.4 11 Norte 26 Norte 0 -- -- 51
2019-05-03 10:00:00 19.7 10 Norte 24 Norte 0 -- -- 52
2019-05-03 09:00:00 19 4 Norte 12 Noroeste 0 -- -- 58
2019-05-03 08:00:00 17.9 6 Norte 13 Norte 0 -- -- 69
2019-05-03 07:00:00 17.9 3 Noroeste 13 Noroeste 0 -- -- 67
2019-05-03 06:00:00 17.9 9 Norte 21 Norte 0 -- -- 67
2019-05-03 05:00:00 18.4 5 Norte 16 Norte 0 -- -- 63
2019-05-03 04:00:00 18.2 5 Norte 13 Noroeste 0 -- -- 67
2019-05-03 03:00:00 18.3 9 Norte 22 Norte 0 -- -- 70
2019-05-03 02:00:00 19 9 Norte 21 Norte 0 -- -- 63
2019-05-03 01:00:00 19 5 Norte 26 Noroeste 0 -- -- 62
2019-05-03 00:00:00 18.5 9 Norte 22 Noroeste 0 -- -- 70
2019-05-02 23:00:00 18.8 7 Noroeste 24 Noroeste 0 -- -- 66
2019-05-02 22:00:00 19.5 8 Norte 19 Norte 0 -- -- 63
2019-05-02 21:00:00 19.6 11 Norte 22 Noroeste 0 -- -- 62
2019-05-02 20:00:00 20.4 12 Norte 29 Noroeste 0 -- -- 58
2019-05-02 19:00:00 20.7 14 Norte 41 Norte 0 -- -- 58
2019-05-02 18:00:00 20.9 21 Norte 38 Norte 0 -- -- 58
2019-05-02 17:00:00 21.2 15 Norte 52 Norte 0 -- -- 58
2019-05-02 16:00:00 22.1 22 Norte 37 Norte 0 -- -- 53
2019-05-02 15:00:00 22.8 10 Oeste 32 Norte 0 -- -- 48
2019-05-02 14:00:00 21.3 16 Norte 34 Norte 0 -- -- 56
2019-05-02 13:00:00 22.3 8 Noroeste 27 Norte 0 -- -- 53
2019-05-02 12:00:00 21.4 14 Norte 27 Norte 0 -- -- 52
2019-05-02 11:00:00 20.8 13 Norte 28 Noroeste 0 -- -- 56
2019-05-02 10:00:00 19.8 17 Norte 29 Norte 0 -- -- 57
2019-05-02 09:00:00 19.6 15 Norte 28 Norte 0 -- -- 62
2019-05-02 08:00:00 18 12 Norte 23 Norte 0 -- -- 73
2019-05-02 07:00:00 17.7 7 Norte 22 Norte 0 -- -- 71
2019-05-02 06:00:00 18 10 Norte 22 Norte 0 -- -- 66
2019-05-02 05:00:00 17.8 6 Norte 16 Noroeste 0 -- -- 69
2019-05-02 04:00:00 17.8 8 Norte 19 Norte 0 -- -- 65
2019-05-02 03:00:00 17.6 5 Nordeste 17 Noroeste 0 -- -- 66
2019-05-02 02:00:00 18.1 8 Norte 19 Nordeste 0 -- -- 64
2019-05-02 01:00:00 18.5 12 Norte 27 Norte 0 -- -- 63
2019-05-02 00:00:00 18.5 12 Norte 31 Norte 0 -- -- 62
2019-05-01 23:00:00 18.5 18 Norte 32 Norte 0 -- -- 60
2019-05-01 22:00:00 19 15 Norte 28 Norte 0 -- -- 60
2019-05-01 21:00:00 19.3 12 Norte 30 Norte 0 -- -- 63
2019-05-01 20:00:00 19.6 15 Norte 32 Norte 0 -- -- 58
2019-05-01 19:00:00 20.8 14 Norte 35 Norte 0 -- -- 54
2019-05-01 18:00:00 21.5 22 Norte 35 Norte 0 -- -- 54
2019-05-01 17:00:00 22.4 21 Norte 42 Nordeste 0 -- -- 52
2019-05-01 16:00:00 22.8 21 Norte 44 Nordeste 0 -- -- 50
2019-05-01 15:00:00 22.6 25 Nordeste 40 Norte 0 -- -- 51
2019-05-01 14:00:00 22.8 21 Norte 45 Norte 0 -- -- 52
2019-05-01 13:00:00 22.9 21 Norte 41 Norte 0 -- -- 51
2019-05-01 12:00:00 22.3 22 Norte 44 Norte 0 -- -- 54
2019-05-01 11:00:00 21.2 25 Norte 41 Norte 0 -- -- 58
2019-05-01 10:00:00 20.8 17 Norte 32 Norte 0 -- -- 60
2019-05-01 09:00:00 19.6 18 Norte 32 Norte 0 -- -- 64
2019-05-01 08:00:00 18 16 Norte 25 Norte 0 -- -- 73
2019-05-01 07:00:00 17.9 13 Norte 27 Norte 0 -- -- 72
2019-05-01 06:00:00 18.1 14 Norte 32 Norte 0 -- -- 70
2019-05-01 05:00:00 18.1 14 Norte 27 Norte 0 -- -- 74
2019-05-01 04:00:00 18.5 11 Noroeste 20 Noroeste 0 -- -- 75
2019-05-01 03:00:00 18.8 12 Norte 21 Norte 0 -- -- 72
2019-05-01 02:00:00 18.9 13 Norte 24 Norte 0 -- -- 74
2019-05-01 01:00:00 19.2 14 Norte 22 Nordeste 0 -- -- 73
2019-05-01 00:00:00 19.7 13 Norte 22 Norte 0 -- -- 68
2019-04-30 23:00:00 20.4 12 Norte 27 Norte 0 -- -- 63
2019-04-30 22:00:00 20.8 15 Norte 28 Nordeste 0 -- -- 62
2019-04-30 21:00:00 21.5 14 Norte 30 Norte 0 -- -- 63
2019-04-30 20:00:00 23.4 13 Norte 21 Norte 0 -- -- 57
2019-04-30 19:00:00 23.9 10 Oeste 17 Sudoeste 0 -- -- 67
2019-04-30 18:00:00 24.4 15 Sudoeste 19 Sudoeste 0 -- -- 65
2019-04-30 17:00:00 24.3 11 Sudoeste 18 Sur 0 -- -- 65
2019-04-30 16:00:00 24.7 10 Sur 22 Sur 0 -- -- 60
2019-04-30 15:00:00 23.8 15 Este 32 Este 0 -- -- 63
2019-04-30 14:00:00 25.5 10 Sudeste 24 Sudoeste 0 -- -- 53
2019-04-30 13:00:00 26.7 15 Norte 30 Norte 0 -- -- 45
2019-04-30 12:00:00 25 15 Norte 30 Norte 0 -- -- 49
2019-04-30 11:00:00 23.4 18 Norte 32 Nordeste 0 -- -- 54
2019-04-30 10:00:00 21.8 23 Nordeste 33 Nordeste 0 -- -- 59
2019-04-30 09:00:00 20.3 4 Nordeste 16 Norte 0 -- -- 67
2019-04-30 08:00:00 18.1 3 Sudeste 11 Norte 0 -- -- 76
2019-04-30 07:00:00 17.5 6 Nordeste 16 Nordeste 0 -- -- 78
2019-04-30 06:00:00 17.5 9 Nordeste 15 Nordeste 0 -- -- 78
2019-04-30 05:00:00 17.5 6 Norte 14 Norte 0 -- -- 78
2019-04-30 04:00:00 17.7 7 Norte 18 Norte 0 -- -- 80
2019-04-30 03:00:00 18.4 9 Norte 17 Norte 0 -- -- 79
2019-04-30 02:00:00 18.7 9 Norte 19 Norte 0 -- -- 78
2019-04-30 01:00:00 19 12 Norte 22 Norte 0 -- -- 77
2019-04-30 00:00:00 19.3 14 Norte 29 Norte 0 -- -- 75
2019-04-29 23:00:00 19.5 18 Norte 30 Norte 0 -- -- 75
2019-04-29 22:00:00 20.2 13 Norte 26 Norte 0 -- -- 73
2019-04-29 21:00:00 20 4 Sudoeste 8 Oeste 0 -- -- 82
2019-04-29 20:00:00 20 5 Sudeste 11 Sudeste 0 -- -- 83
2019-04-29 19:00:00 20.6 6 Sudeste 12 Sudeste 0 -- -- 79
2019-04-29 18:00:00 20.9 8 Sudeste 13 Sur 0 -- -- 76
2019-04-29 17:00:00 22.4 10 Sur 22 Sur 0 -- -- 73
2019-04-29 16:00:00 21 14 Sur 28 Este 0 -- -- 77
2019-04-29 15:00:00 21.9 12 Sudeste 25 Este 0 -- -- 73
2019-04-29 14:00:00 22.7 9 Este 18 Este 0 -- -- 69
2019-04-29 13:00:00 21 9 Sudeste 13 Sur 0 -- -- 69
2019-04-29 12:00:00 20.7 9 Sudeste 14 Sur 0 -- -- 70
2019-04-29 11:00:00 20 9 Sudeste 16 Sudeste 0 -- -- 74
2019-04-29 10:00:00 20.4 8 Sudeste 14 Este 0 -- -- 70
2019-04-29 09:00:00 19.4 7 Este 13 Este 0 -- -- 72
2019-04-29 08:00:00 17.2 3 Norte 8 Nordeste 0 -- -- 75
2019-04-29 07:00:00 16.5 6 Norte 17 Norte 0 -- -- 80
2019-04-29 06:00:00 17.6 12 Norte 23 Norte 0 -- -- 76
2019-04-29 05:00:00 17.7 12 Norte 18 Norte 0 -- -- 76
2019-04-29 04:00:00 17.9 16 Norte 27 Norte 0 -- -- 76
2019-04-29 03:00:00 18 7 Noroeste 13 Norte 0 -- -- 75
2019-04-29 02:00:00 18.4 6 Norte 12 Norte 0 -- -- 74
2019-04-29 01:00:00 18.5 3 Nordeste 13 Norte 0 -- -- 74
2019-04-29 00:00:00 19.1 6 Noroeste 12 Norte 0 -- -- 71
2019-04-28 23:00:00 19.2 9 Norte 23 Noroeste 0 -- -- 71
2019-04-28 22:00:00 19.5 11 Norte 31 Noroeste 0 -- -- 70
2019-04-28 21:00:00 20.1 16 Noroeste 44 Norte 0 -- -- 68
2019-04-28 20:00:00 20.9 18 Norte 32 Norte 0 -- -- 66
2019-04-28 19:00:00 21 9 Sur 17 Sudeste 0 -- -- 74
2019-04-28 18:00:00 21.5 8 Sudeste 22 Este 0 -- -- 74
2019-04-28 17:00:00 21.1 8 Sudeste 15 Sudeste 0 -- -- 74
2019-04-28 16:00:00 20.8 11 Sudeste 20 Sudeste 0 -- -- 75
2019-04-28 15:00:00 22.2 10 Sur 18 Este 0 -- -- 68
2019-04-28 14:00:00 21.7 10 Sudeste 23 Este 0 -- -- 69
2019-04-28 13:00:00 23.8 9 Sur 20 Sur 0 -- -- 60
2019-04-28 12:00:00 23.2 10 Nordeste 25 Nordeste 0 -- -- 58
2019-04-28 11:00:00 21.5 18 Nordeste 31 Nordeste 0 -- -- 63
2019-04-28 10:00:00 20.4 15 Nordeste 26 Nordeste 0 -- -- 68
2019-04-28 09:00:00 18.5 8 Norte 15 Nordeste 0 -- -- 75
2019-04-28 08:00:00 16.6 5 Norte 8 Norte 0 -- -- 80
2019-04-28 07:00:00 16.6 4 Norte 8 Nordeste 0 -- -- 79
2019-04-28 06:00:00 16.4 3 Nordeste 8 Nordeste 0 -- -- 81
2019-04-28 05:00:00 17.6 5 Noroeste 14 Noroeste 0 -- -- 76
2019-04-28 04:00:00 17.5 8 Noroeste 15 Norte 0 -- -- 78
2019-04-28 03:00:00 17.2 6 Nordeste 17 Norte 0 -- -- 81
2019-04-28 02:00:00 17.9 8 Norte 20 Norte 0 -- -- 79
2019-04-28 01:00:00 18 12 Norte 21 Norte 0 -- -- 78
2019-04-28 00:00:00 18.4 10 Norte 21 Nordeste 0 -- -- 75
2019-04-27 23:00:00 18.8 10 Norte 24 Norte 0 -- -- 73
2019-04-27 22:00:00 19.2 14 Norte 27 Norte 0 -- -- 71
2019-04-27 21:00:00 19.9 17 Norte 33 Norte 0 -- -- 69
2019-04-27 20:00:00 21.1 19 Norte 31 Norte 0 -- -- 64
2019-04-27 19:00:00 22.8 15 Norte 29 Norte 0 -- -- 57
2019-04-27 18:00:00 23.4 19 Norte 35 Nordeste 0 -- -- 56
2019-04-27 17:00:00 24.4 17 Norte 35 Norte 0 -- -- 53
2019-04-27 16:00:00 25.1 13 Norte 30 Nordeste 0 -- -- 51
2019-04-27 15:00:00 21.6 18 Este 40 Este 0 -- -- 67
2019-04-27 14:00:00 21.2 24 Este 42 Este 0 -- -- 67
2019-04-27 13:00:00 22.3 11 Este 31 Nordeste 0 -- -- 59
2019-04-27 12:00:00 21.1 18 Nordeste 28 Nordeste 0 -- -- 58
2019-04-27 11:00:00 19.6 13 Norte 27 Nordeste 0 -- -- 64
2019-04-27 10:00:00 18.5 15 Norte 24 Nordeste 0 -- -- 67
2019-04-27 09:00:00 17.9 9 Norte 17 Norte 0 -- -- 69
2019-04-27 08:00:00 17 8 Norte 17 Noroeste 0 -- -- 73
2019-04-27 07:00:00 16.6 9 Norte 20 Noroeste 0 -- -- 73
2019-04-27 06:00:00 16.5 12 Norte 22 Norte 0 -- -- 72
2019-04-27 05:00:00 16.7 12 Norte 22 Norte 0 -- -- 72
2019-04-27 04:00:00 17 13 Norte 22 Norte 0 -- -- 71
2019-04-27 03:00:00 17.1 8 Noroeste 18 Norte 0 -- -- 71
2019-04-27 02:00:00 17.1 9 Norte 20 Norte 0 -- -- 69
2019-04-27 01:00:00 17.7 10 Norte 26 Norte 0 -- -- 67
2019-04-27 00:00:00 18.3 14 Norte 31 Norte 0 -- -- 66
2019-04-26 23:00:00 18.4 14 Norte 32 Norte 0 -- -- 65
2019-04-26 22:00:00 18.8 18 Norte 38 Norte 0 -- -- 63
2019-04-26 21:00:00 19.3 22 Norte 36 Norte 0 -- -- 61
2019-04-26 20:00:00 20.1 20 Norte 39 Norte 0 -- -- 58
2019-04-26 19:00:00 21 22 Norte 42 Norte 0 -- -- 53
2019-04-26 18:00:00 22.7 19 Norte 38 Noroeste 0 -- -- 52
2019-04-26 17:00:00 23.3 19 Norte 35 Norte 0 -- -- 49
2019-04-26 16:00:00 22.6 19 Nordeste 39 Nordeste 0 -- -- 56
2019-04-26 15:00:00 22.2 22 Este 37 Este 0 -- -- 58
2019-04-26 14:00:00 22.9 15 Nordeste 37 Nordeste 0 -- -- 53
2019-04-26 13:00:00 22 24 Nordeste 37 Nordeste 0 -- -- 57
2019-04-26 12:00:00 20.6 26 Nordeste 38 Nordeste 0 -- -- 60
2019-04-26 11:00:00 20.7 22 Nordeste 32 Norte 0 -- -- 56
2019-04-26 10:00:00 18.9 17 Nordeste 34 Nordeste 0 -- -- 67
2019-04-26 09:00:00 18.6 13 Norte 24 Norte 0 -- -- 61
2019-04-26 08:00:00 18.1 17 Nordeste 26 Nordeste 0 -- -- 64
2019-04-26 07:00:00 18 12 Norte 31 Norte 0 -- -- 65
2019-04-26 06:00:00 17.9 18 Norte 31 Nordeste 0 -- -- 67
2019-04-26 05:00:00 18.4 14 Norte 27 Norte 0 -- -- 67
2019-04-26 04:00:00 18.7 12 Nordeste 26 Nordeste 0 -- -- 65
2019-04-26 03:00:00 18.4 19 Nordeste 31 Nordeste 0 -- -- 68
2019-04-26 02:00:00 18.6 13 Nordeste 28 Nordeste 0 -- -- 67
2019-04-26 01:00:00 18.6 17 Nordeste 28 Nordeste 0 -- -- 67
2019-04-26 00:00:00 18.9 16 Nordeste 28 Nordeste 0 -- -- 66